createdAt,value
2019-02-16T00:00:36.834Z,5.99
2019-02-16T00:03:05.705Z,6.01
2019-02-16T00:05:34.829Z,5.99
2019-02-16T00:08:03.709Z,5.96
2019-02-16T00:10:32.363Z,5.92
2019-02-16T00:13:01.272Z,5.94
2019-02-16T00:15:30.461Z,5.89
2019-02-16T00:17:59.367Z,5.88
2019-02-16T00:20:28.296Z,5.88
2019-02-16T00:22:57.408Z,5.87
2019-02-16T00:25:26.292Z,5.88
2019-02-16T00:27:55.206Z,5.92
2019-02-16T00:30:24.094Z,6.04
2019-02-16T00:32:52.971Z,6.03
2019-02-16T00:35:22.105Z,6.03
2019-02-16T00:37:51.253Z,6.12
2019-02-16T00:40:20.391Z,6.12
2019-02-16T00:42:49.258Z,6.24
2019-02-16T00:45:18.175Z,6.22
2019-02-16T00:47:46.902Z,6.22
2019-02-16T00:50:15.941Z,6.15
2019-02-16T00:52:44.593Z,6.09
2019-02-16T00:55:13.234Z,6.06
2019-02-16T00:57:42.359Z,6.03
2019-02-16T01:00:11.728Z,5.91
2019-02-16T01:02:40.632Z,5.91
2019-02-16T01:05:09.610Z,5.75
2019-02-16T01:07:38.606Z,5.75
2019-02-16T01:10:08.010Z,5.67
2019-02-16T01:12:37.167Z,5.59
2019-02-16T01:15:07.618Z,5.43
2019-02-16T01:17:36.597Z,5.43
2019-02-16T01:20:06.847Z,5.35
2019-02-16T01:22:35.984Z,5.23
2019-02-16T01:25:05.162Z,5.23
2019-02-16T01:27:33.817Z,5.30
2019-02-16T01:30:02.967Z,5.29
2019-02-16T01:32:32.105Z,5.27
2019-02-16T01:35:00.978Z,5.29
2019-02-16T01:37:30.129Z,5.20
2019-02-16T01:39:59.508Z,5.14
2019-02-16T01:42:28.385Z,5.11
2019-02-16T01:44:57.566Z,5.05
2019-02-16T01:47:26.684Z,5.06
2019-02-16T01:49:55.810Z,4.88
2019-02-16T01:52:24.973Z,4.93
2019-02-16T01:54:53.859Z,5.00
2019-02-16T01:57:22.752Z,4.97
2019-02-16T01:59:51.660Z,5.07
2019-02-16T02:02:20.817Z,5.08
2019-02-16T02:04:49.971Z,5.05
2019-02-16T02:07:18.908Z,5.02
2019-02-16T02:09:47.540Z,4.94
2019-02-16T02:12:16.410Z,4.87
2019-02-16T02:14:45.307Z,4.93
2019-02-16T02:17:14.181Z,4.85
2019-02-16T02:19:43.121Z,4.73
2019-02-16T02:22:11.790Z,4.73
2019-02-16T02:24:40.427Z,4.69
2019-02-16T02:27:09.077Z,4.66
2019-02-16T02:29:37.721Z,4.59
2019-02-16T02:32:06.366Z,4.64
2019-02-16T02:34:35.576Z,4.76
2019-02-16T02:37:04.557Z,4.66
2019-02-16T02:39:33.202Z,4.66
2019-02-16T02:42:02.322Z,4.62
2019-02-16T02:44:31.212Z,4.66
2019-02-16T02:47:00.073Z,4.69
2019-02-16T02:49:29.194Z,4.70
2019-02-16T02:51:58.073Z,4.71
2019-02-16T02:54:27.204Z,4.73
2019-02-16T02:56:56.316Z,4.77
2019-02-16T02:59:24.984Z,4.87
2019-02-16T03:01:54.121Z,4.93
2019-02-16T03:04:22.986Z,4.93
2019-02-16T03:06:52.104Z,4.94
2019-02-16T03:09:22.558Z,4.95
2019-02-16T03:11:51.157Z,4.98
2019-02-16T03:14:20.293Z,5.05
2019-02-16T03:16:49.393Z,5.05
2019-02-16T03:19:18.274Z,5.09
2019-02-16T03:21:47.408Z,5.16
2019-02-16T03:24:16.280Z,5.15
2019-02-16T03:27:06.780Z,5.16
2019-02-16T03:29:57.371Z,5.09
2019-02-16T03:32:59.392Z,5.09
2019-02-16T03:36:12.484Z,5.00
2019-02-16T03:38:51.920Z,4.99
2019-02-16T03:41:20.872Z,4.95
2019-02-16T03:43:49.749Z,4.86
2019-02-16T03:46:18.928Z,4.83
2019-02-16T03:48:47.555Z,4.70
2019-02-16T03:51:16.928Z,4.69
2019-02-16T03:53:45.857Z,4.68
2019-02-16T03:56:14.760Z,4.56
2019-02-16T03:58:43.887Z,4.58
2019-02-16T04:01:12.901Z,4.40
2019-02-16T04:03:41.525Z,4.39
2019-02-16T04:06:11.137Z,4.49
2019-02-16T04:08:39.770Z,4.47
2019-02-16T04:11:08.422Z,4.45
2019-02-16T04:13:37.571Z,4.43
2019-02-16T04:16:06.560Z,4.43
2019-02-16T04:18:35.716Z,4.40
2019-02-16T04:21:04.853Z,4.42
2019-02-16T04:23:33.739Z,4.36
2019-02-16T04:26:07.395Z,4.36
2019-02-16T04:28:36.309Z,4.37
2019-02-16T04:31:05.191Z,4.25
2019-02-16T04:33:33.814Z,4.28
2019-02-16T04:36:02.787Z,4.30
2019-02-16T04:38:31.629Z,4.29
2019-02-16T04:41:00.267Z,4.30
2019-02-16T04:43:29.401Z,4.34
2019-02-16T04:45:58.026Z,4.36
2019-02-16T04:48:26.651Z,4.48
2019-02-16T04:50:55.877Z,4.42
2019-02-16T04:53:24.504Z,4.37
2019-02-16T04:55:53.363Z,4.31
2019-02-16T04:58:22.520Z,4.31
2019-02-16T05:00:51.635Z,4.36
2019-02-16T05:03:20.999Z,4.44
2019-02-16T05:05:50.134Z,4.40
2019-02-16T05:08:18.777Z,4.40
2019-02-16T05:10:47.944Z,4.37
2019-02-16T05:13:16.602Z,4.43
2019-02-16T05:15:45.464Z,4.55
2019-02-16T05:18:14.353Z,4.57
2019-02-16T05:20:43.480Z,4.51
2019-02-16T05:23:12.358Z,4.46
2019-02-16T05:25:41.006Z,4.41
2019-02-16T05:28:09.621Z,4.48
2019-02-16T05:30:38.276Z,4.47
2019-02-16T05:33:06.911Z,4.41
2019-02-16T05:35:35.794Z,4.42
2019-02-16T05:38:04.410Z,4.43
2019-02-16T05:40:33.323Z,4.36
2019-02-16T05:43:02.690Z,4.30
2019-02-16T05:45:31.314Z,4.29
2019-02-16T05:48:00.211Z,4.16
2019-02-16T05:50:29.077Z,4.17
2019-02-16T05:52:57.955Z,4.22
2019-02-16T05:55:27.130Z,4.30
2019-02-16T05:57:56.022Z,4.37
2019-02-16T06:00:27.454Z,4.56
2019-02-16T06:02:56.092Z,4.72
2019-02-16T06:05:24.729Z,4.78
2019-02-16T06:07:53.630Z,4.85
2019-02-16T06:10:22.278Z,4.73
2019-02-16T06:12:51.128Z,4.72
2019-02-16T06:15:20.046Z,4.65
2019-02-16T06:17:48.667Z,4.54
2019-02-16T06:20:17.516Z,4.44
2019-02-16T06:22:46.124Z,4.36
2019-02-16T06:25:15.020Z,4.36
2019-02-16T06:27:43.903Z,4.31
2019-02-16T06:30:12.530Z,4.28
2019-02-16T06:32:41.144Z,4.41
2019-02-16T06:35:27.894Z,4.42
2019-02-16T06:37:56.824Z,4.62
2019-02-16T06:40:25.910Z,4.71
2019-02-16T06:42:54.998Z,4.74
2019-02-16T06:45:23.861Z,4.68
2019-02-16T06:47:52.733Z,4.70
2019-02-16T06:50:21.628Z,4.62
2019-02-16T06:52:50.534Z,4.47
2019-02-16T06:55:19.421Z,4.37
2019-02-16T06:57:51.723Z,4.33
2019-02-16T07:00:23.399Z,4.38
2019-02-16T07:02:52.516Z,4.58
2019-02-16T07:05:21.378Z,4.73
2019-02-16T07:07:50.015Z,4.82
2019-02-16T07:10:18.900Z,4.83
2019-02-16T07:12:48.064Z,4.87
2019-02-16T07:15:16.695Z,4.91
2019-02-16T07:17:50.477Z,4.86
2019-02-16T07:20:20.782Z,4.82
2019-02-16T07:22:49.631Z,4.92
2019-02-16T07:25:18.609Z,4.86
2019-02-16T07:27:47.529Z,4.94
2019-02-16T07:30:16.421Z,4.98
2019-02-16T07:32:45.045Z,4.98
2019-02-16T07:35:14.086Z,5.22
2019-02-16T07:37:42.961Z,5.19
2019-02-16T07:40:11.583Z,5.38
2019-02-16T07:43:08.345Z,5.31
2019-02-16T07:45:54.519Z,5.27
2019-02-16T07:48:40.645Z,5.31
2019-02-16T07:51:29.950Z,5.28
2019-02-16T07:54:17.419Z,5.28
2019-02-16T07:57:05.646Z,5.31
2019-02-16T07:59:49.636Z,5.42
2019-02-16T08:02:22.932Z,5.64
2019-02-16T08:05:06.318Z,5.86
2019-02-16T08:07:59.820Z,6.25
2019-02-16T08:10:56.973Z,6.48
2019-02-16T08:13:58.166Z,7.15
2019-02-16T08:16:58.143Z,7.51
2019-02-16T08:19:38.731Z,7.87
2019-02-16T08:22:16.129Z,7.76
2019-02-16T08:25:02.603Z,8.21
2019-02-16T08:27:43.015Z,8.71
2019-02-16T08:30:43.185Z,9.08
2019-02-16T08:33:33.786Z,9.06
2019-02-16T08:36:24.516Z,8.83
2019-02-16T08:39:10.898Z,9.33
2019-02-16T08:42:10.513Z,8.79
2019-02-16T08:44:58.771Z,8.75
2019-02-16T08:47:37.322Z,9.06
2019-02-16T08:50:14.924Z,9.84
2019-02-16T08:52:54.767Z,9.63
2019-02-16T08:55:47.160Z,9.55
2019-02-16T08:58:34.997Z,9.54
2019-02-16T09:01:20.908Z,10.25
2019-02-16T09:03:58.981Z,10.95
2019-02-16T09:06:40.917Z,10.84
2019-02-16T09:09:27.997Z,10.78
2019-02-16T09:12:05.844Z,11.45
2019-02-16T09:14:47.628Z,11.63
2019-02-16T09:17:31.517Z,11.12
2019-02-16T09:20:12.976Z,11.19
2019-02-16T09:22:59.385Z,12.09
2019-02-16T09:25:37.358Z,11.63
2019-02-16T09:28:23.689Z,11.54
2019-02-16T09:31:04.736Z,10.88
2019-02-16T09:33:55.461Z,11.86
2019-02-16T09:37:01.422Z,11.99
2019-02-16T09:39:43.321Z,11.60
2019-02-16T09:42:31.455Z,12.26
2019-02-16T09:45:09.198Z,13.68
2019-02-16T09:47:55.370Z,12.56
2019-02-16T09:50:31.895Z,13.79
2019-02-16T09:53:18.611Z,13.78
2019-02-16T09:56:04.975Z,12.91
2019-02-16T09:58:53.977Z,12.67
2019-02-16T10:01:35.785Z,12.98
2019-02-16T10:04:22.432Z,13.14
2019-02-16T10:07:11.813Z,13.02
2019-02-16T10:10:02.291Z,12.98
2019-02-16T10:13:07.964Z,13.09
2019-02-16T10:16:10.871Z,13.91
2019-02-16T10:18:55.102Z,13.34
2019-02-16T10:21:35.040Z,14.40
2019-02-16T10:24:22.947Z,14.21
2019-02-16T10:27:02.091Z,14.81
2019-02-16T10:29:55.834Z,14.39
2019-02-16T10:32:42.415Z,15.15
2019-02-16T10:35:45.508Z,15.33
2019-02-16T10:38:27.424Z,14.06
2019-02-16T10:41:30.371Z,14.41
2019-02-16T10:44:09.775Z,14.13
2019-02-16T10:46:46.636Z,15.05
2019-02-16T10:49:37.508Z,14.71
2019-02-16T10:52:29.411Z,14.24
2019-02-16T10:55:13.466Z,14.68
2019-02-16T10:57:50.942Z,14.59
2019-02-16T11:00:41.733Z,14.57
2019-02-16T11:03:23.337Z,15.36
2019-02-16T11:06:10.358Z,15.83
2019-02-16T11:09:10.430Z,15.98
2019-02-16T11:11:49.496Z,16.22
2019-02-16T11:14:38.635Z,15.57
2019-02-16T11:17:24.769Z,16.46
2019-02-16T11:20:11.421Z,16.79
2019-02-16T11:22:49.586Z,16.56
2019-02-16T11:25:32.605Z,16.36
2019-02-16T11:28:22.954Z,16.66
2019-02-16T11:31:22.885Z,16.63
2019-02-16T11:34:09.093Z,16.87
2019-02-16T11:36:47.700Z,16.51
2019-02-16T11:39:44.586Z,15.83
2019-02-16T11:42:28.326Z,15.34
2019-02-16T11:45:08.050Z,15.96
2019-02-16T11:47:53.844Z,15.59
2019-02-16T11:50:30.366Z,16.21
2019-02-16T11:53:16.730Z,16.30
2019-02-16T11:55:53.683Z,16.13
2019-02-16T11:58:36.939Z,15.90
2019-02-16T12:01:24.446Z,16.56
2019-02-16T12:04:01.760Z,16.23
2019-02-16T12:06:49.723Z,15.95
2019-02-16T12:09:43.464Z,16.17
2019-02-16T12:12:37.422Z,16.34
2019-02-16T12:15:18.843Z,16.20
2019-02-16T12:18:12.942Z,16.12
2019-02-16T12:20:59.367Z,16.40
2019-02-16T12:23:43.706Z,16.92
2019-02-16T12:26:22.953Z,16.81
2019-02-16T12:29:11.966Z,17.09
2019-02-16T12:31:53.217Z,16.85
2019-02-16T12:34:42.023Z,16.46
2019-02-16T12:37:19.672Z,16.86
2019-02-16T12:40:10.121Z,16.19
2019-02-16T12:42:56.724Z,16.53
2019-02-16T12:45:33.928Z,16.66
2019-02-16T12:48:20.611Z,16.95
2019-02-16T12:50:59.566Z,17.20
2019-02-16T12:53:46.275Z,16.42
2019-02-16T12:56:24.884Z,16.77
2019-02-16T12:59:02.039Z,16.29
2019-02-16T13:01:52.463Z,16.64
2019-02-16T13:04:46.238Z,16.37
2019-02-16T13:07:26.934Z,15.96
2019-02-16T13:10:01.538Z,15.62
2019-02-16T13:12:43.315Z,15.34
2019-02-16T13:15:22.126Z,15.64
2019-02-16T13:17:59.080Z,15.49
2019-02-16T13:20:39.121Z,15.73
2019-02-16T13:23:35.702Z,15.39
2019-02-16T13:26:15.828Z,15.52
2019-02-16T13:28:53.027Z,15.75
2019-02-16T13:31:30.699Z,15.62
2019-02-16T13:34:16.601Z,15.89
2019-02-16T13:37:00.841Z,16.14
2019-02-16T13:39:47.728Z,16.11
2019-02-16T13:42:21.979Z,15.81
2019-02-16T13:45:01.980Z,15.48
2019-02-16T13:47:38.295Z,15.38
2019-02-16T13:50:12.517Z,15.62
2019-02-16T13:52:46.976Z,15.11
2019-02-16T13:55:33.068Z,15.25
2019-02-16T13:58:09.463Z,15.03
2019-02-16T14:00:43.615Z,15.36
2019-02-16T14:03:25.356Z,15.49
2019-02-16T14:06:19.742Z,15.39
2019-02-16T14:09:19.276Z,15.41
2019-02-16T14:11:53.506Z,15.22
2019-02-16T14:14:29.223Z,15.26
2019-02-16T14:17:19.231Z,14.95
2019-02-16T14:19:48.156Z,15.14
2019-02-16T14:22:17.414Z,15.06
2019-02-16T14:24:49.307Z,14.80
2019-02-16T14:27:18.197Z,14.66
2019-02-16T14:29:47.086Z,14.86
2019-02-16T14:32:16.239Z,14.86
2019-02-16T14:34:45.011Z,14.81
2019-02-16T14:37:28.756Z,14.91
2019-02-16T14:39:57.683Z,14.70
2019-02-16T14:42:26.562Z,14.59
2019-02-16T14:44:55.679Z,14.51
2019-02-16T14:47:24.591Z,14.54
2019-02-16T14:49:53.202Z,14.56
2019-02-16T14:52:21.844Z,14.87
2019-02-16T14:54:50.799Z,14.64
2019-02-16T14:57:19.629Z,14.64
2019-02-16T14:59:48.743Z,14.65
2019-02-16T15:02:17.404Z,14.68
2019-02-16T15:04:46.035Z,14.62
2019-02-16T15:07:15.260Z,14.52
2019-02-16T15:09:44.410Z,14.20
2019-02-16T15:12:14.429Z,14.31
2019-02-16T15:14:43.395Z,14.11
2019-02-16T15:17:12.798Z,14.00
2019-02-16T15:19:41.455Z,14.09
2019-02-16T15:22:10.886Z,14.22
2019-02-16T15:24:39.577Z,14.27
2019-02-16T15:27:08.982Z,14.22
2019-02-16T15:29:38.100Z,14.25
2019-02-16T15:32:07.276Z,14.15
2019-02-16T15:34:36.162Z,14.28
2019-02-16T15:37:05.281Z,14.17
2019-02-16T15:39:34.206Z,14.23
2019-02-16T15:42:03.106Z,13.89
2019-02-16T15:44:32.224Z,13.79
2019-02-16T15:47:01.389Z,13.52
2019-02-16T15:49:30.380Z,13.32
2019-02-16T15:52:00.988Z,13.22
2019-02-16T15:54:29.879Z,13.01
2019-02-16T15:56:59.253Z,13.02
2019-02-16T15:59:34.987Z,12.90
2019-02-16T16:01:58.992Z,12.88
2019-02-16T16:04:27.935Z,12.63
2019-02-16T16:06:56.813Z,12.57
2019-02-16T16:09:41.095Z,12.57
2019-02-16T16:12:20.046Z,12.53
2019-02-16T16:14:57.532Z,12.49
2019-02-16T16:17:54.363Z,12.34
2019-02-16T16:20:34.227Z,12.38
2019-02-16T16:23:30.025Z,12.21
2019-02-16T16:26:24.088Z,12.16
2019-02-16T16:29:15.022Z,12.07
2019-02-16T16:32:12.264Z,12.00
2019-02-16T16:34:55.782Z,11.95
2019-02-16T16:37:39.669Z,11.87
2019-02-16T16:40:33.678Z,11.81
2019-02-16T16:43:17.950Z,11.67
2019-02-16T16:46:05.800Z,11.43
2019-02-16T16:49:05.859Z,11.34
2019-02-16T16:51:52.816Z,11.28
2019-02-16T16:54:31.686Z,11.11
2019-02-16T16:57:07.729Z,11.19
2019-02-16T16:59:51.557Z,11.04
2019-02-16T17:02:37.943Z,10.96
2019-02-16T17:05:37.507Z,11.00
2019-02-16T17:08:23.850Z,10.86
2019-02-16T17:11:20.615Z,10.88
2019-02-16T17:14:20.170Z,10.83
2019-02-16T17:16:59.423Z,10.69
2019-02-16T17:19:33.760Z,10.60
2019-02-16T17:22:21.982Z,10.46
2019-02-16T17:25:07.112Z,10.51
2019-02-16T17:27:55.043Z,10.61
2019-02-16T17:30:34.852Z,10.65
2019-02-16T17:33:12.584Z,10.63
2019-02-16T17:36:03.752Z,10.74
2019-02-16T17:38:39.384Z,10.74
2019-02-16T17:41:25.263Z,10.76
2019-02-16T17:44:31.178Z,10.57
2019-02-16T17:47:14.931Z,10.44
2019-02-16T17:49:59.681Z,10.49
2019-02-16T17:53:11.247Z,10.42
2019-02-16T17:55:49.457Z,10.42
2019-02-16T17:58:24.667Z,10.42
2019-02-16T18:01:24.557Z,10.30
2019-02-16T18:04:15.072Z,10.28
2019-02-16T18:07:02.838Z,10.30
2019-02-16T18:09:53.778Z,10.26
2019-02-16T18:12:36.832Z,10.17
2019-02-16T18:15:23.473Z,10.14
2019-02-16T18:18:00.231Z,10.28
2019-02-16T18:20:47.923Z,10.40
2019-02-16T18:23:33.995Z,10.34
2019-02-16T18:26:28.985Z,10.34
2019-02-16T18:29:23.706Z,10.19
2019-02-16T18:32:11.308Z,10.06
2019-02-16T18:34:58.622Z,9.89
2019-02-16T18:37:35.345Z,9.80
2019-02-16T18:40:11.154Z,9.78
2019-02-16T18:43:00.255Z,9.66
2019-02-16T18:45:37.549Z,9.54
2019-02-16T18:48:28.474Z,9.48
2019-02-16T18:51:19.003Z,9.47
2019-02-16T18:54:05.166Z,9.34
2019-02-16T18:56:44.777Z,9.36
2019-02-16T18:59:35.596Z,9.39
2019-02-16T19:02:24.046Z,9.29
2019-02-16T19:05:02.109Z,9.25
2019-02-16T19:07:58.811Z,9.27
2019-02-16T19:10:42.128Z,9.35
2019-02-16T19:13:34.702Z,9.08
2019-02-16T19:16:21.757Z,9.05
2019-02-16T19:19:18.675Z,8.95
2019-02-16T19:22:01.440Z,9.09
2019-02-16T19:24:49.036Z,9.14
2019-02-16T19:27:27.927Z,9.10
2019-02-16T19:30:09.065Z,9.00
2019-02-16T19:33:02.908Z,9.02
2019-02-16T19:35:53.682Z,9.16
2019-02-16T19:38:43.725Z,9.38
2019-02-16T19:41:30.170Z,9.32
2019-02-16T19:44:09.561Z,9.24
2019-02-16T19:47:00.607Z,9.18
2019-02-16T19:49:36.501Z,9.14
2019-02-16T19:52:23.026Z,9.11
2019-02-16T19:55:01.615Z,9.22
2019-02-16T19:58:01.320Z,9.28
2019-02-16T20:00:44.424Z,9.49
2019-02-16T20:03:32.579Z,9.28
2019-02-16T20:06:14.108Z,9.33
2019-02-16T20:08:52.596Z,9.34
2019-02-16T20:11:36.489Z,9.55
2019-02-16T20:14:20.246Z,9.50
2019-02-16T20:17:14.156Z,9.38
2019-02-16T20:20:01.072Z,9.39
2019-02-16T20:22:38.014Z,9.54
2019-02-16T20:25:26.303Z,9.57
2019-02-16T20:28:06.441Z,9.50
2019-02-16T20:30:52.544Z,9.30
2019-02-16T20:33:31.844Z,9.47
2019-02-16T20:36:08.480Z,9.37
2019-02-16T20:38:52.464Z,9.22
2019-02-16T20:41:52.552Z,9.22
2019-02-16T20:44:33.709Z,9.18
2019-02-16T20:47:12.887Z,9.07
2019-02-16T20:49:57.503Z,8.99
2019-02-16T20:52:43.150Z,9.09
2019-02-16T20:55:25.078Z,9.20
2019-02-16T20:58:05.453Z,9.20
2019-02-16T21:00:56.214Z,9.08
2019-02-16T21:03:32.204Z,8.89
2019-02-16T21:06:07.658Z,8.87
2019-02-16T21:08:59.681Z,8.87
2019-02-16T21:11:42.570Z,8.80
2019-02-16T21:14:20.554Z,8.81
2019-02-16T21:17:17.820Z,8.73
2019-02-16T21:20:04.570Z,8.49
2019-02-16T21:22:59.695Z,8.49
2019-02-16T21:25:59.537Z,8.43
2019-02-16T21:28:56.911Z,8.35
2019-02-16T21:31:39.845Z,8.04
2019-02-16T21:34:14.894Z,7.93
2019-02-16T21:37:21.039Z,7.84
2019-02-16T21:40:11.469Z,7.87
2019-02-16T21:42:47.184Z,7.83
2019-02-16T21:45:27.768Z,7.74
2019-02-16T21:48:24.451Z,7.76
2019-02-16T21:51:10.840Z,7.85
2019-02-16T21:53:45.180Z,7.88
2019-02-16T21:56:31.790Z,8.00
2019-02-16T21:59:22.825Z,8.07
2019-02-16T22:02:17.090Z,8.06
2019-02-16T22:05:02.854Z,7.95
2019-02-16T22:07:43.211Z,7.96
2019-02-16T22:10:18.803Z,8.11
2019-02-16T22:13:18.672Z,8.02
2019-02-16T22:15:47.663Z,8.29
2019-02-16T22:18:16.290Z,8.43
2019-02-16T22:20:44.961Z,8.45
2019-02-16T22:23:14.118Z,8.44
2019-02-16T22:25:43.278Z,8.37
2019-02-16T22:28:20.394Z,8.57
2019-02-16T22:30:46.781Z,8.64
2019-02-16T22:33:15.469Z,8.98
2019-02-16T22:35:44.611Z,9.05
2019-02-16T22:38:13.620Z,9.00
2019-02-16T22:40:42.410Z,8.83
2019-02-16T22:43:11.314Z,9.04
2019-02-16T22:45:40.025Z,9.04
2019-02-16T22:48:09.571Z,9.19
2019-02-16T22:50:39.936Z,9.11
